Slater, Colorado
Current Conditions -  °F | °C
As of 3:55 AM on Sunday 23 Nov 2014 (Local Time) from KDWX Reporting Station
Broken Clouds Broken Clouds  
Wind Chill: 24°   Ceiling: 2600
Heat Index: 24°   Visibility: 10mi
Dew Point: 21°   Wind: 0mph
Humidity: 87%   Direction: NA
Pressure: 29.84"   Gusts: NA
Location:  41°N, 107.38°W
Report Text: KDWX 231055Z AUTO 00000KT 10SM BKN026 BKN050 M04/M06 A2984 RMK AO2 T10441062
Loading
Personal Weather Stations






























Interactive Weather Map New forecast layout! Learn more

10-Day Weather Forecast

Advertisements
Track Severe Weather on mobile